createdAt,value
2018-11-21T00:00:03.608Z,62.09
2018-11-21T00:02:33.193Z,62.31
2018-11-21T00:05:02.828Z,61.77
2018-11-21T00:07:35.865Z,61.91
2018-11-21T00:10:07.631Z,62.04
2018-11-21T00:12:37.722Z,62.01
2018-11-21T00:15:09.832Z,62.19
2018-11-21T00:17:39.455Z,62.60
2018-11-21T00:20:11.190Z,62.37
2018-11-21T00:22:40.783Z,62.67
2018-11-21T00:25:10.711Z,63.46
2018-11-21T00:27:40.487Z,63.02
2018-11-21T00:30:13.209Z,62.79
2018-11-21T00:32:42.784Z,63.13
2018-11-21T00:35:12.860Z,63.67
2018-11-21T00:37:42.448Z,64.00
2018-11-21T00:40:13.990Z,64.23
2018-11-21T00:43:02.214Z,64.40
2018-11-21T00:45:31.865Z,64.17
2018-11-21T00:48:01.493Z,64.07
2018-11-21T00:50:50.493Z,64.46
2018-11-21T00:53:20.448Z,64.18
2018-11-21T00:55:50.052Z,64.58
2018-11-21T00:58:19.723Z,64.75
2018-11-21T01:00:49.307Z,64.63
2018-11-21T01:03:18.942Z,64.32
2018-11-21T01:05:48.547Z,64.30
2018-11-21T01:08:18.193Z,64.11
2018-11-21T01:10:47.811Z,64.52
2018-11-21T01:13:17.501Z,64.55
2018-11-21T01:15:47.106Z,64.47
2018-11-21T01:20:52.049Z,63.99
2018-11-21T01:23:21.684Z,64.03
2018-11-21T01:25:51.259Z,63.77
2018-11-21T01:28:20.845Z,63.78
2018-11-21T01:30:50.478Z,64.03
2018-11-21T01:33:20.051Z,63.68
2018-11-21T01:35:49.763Z,63.82
2018-11-21T01:38:19.710Z,64.06
2018-11-21T01:40:49.445Z,64.29
2018-11-21T01:43:19.442Z,64.23
2018-11-21T01:45:50.277Z,63.95
2018-11-21T01:48:19.910Z,64.04
2018-11-21T01:50:49.520Z,64.05
2018-11-21T01:53:37.780Z,63.87
2018-11-21T01:56:07.437Z,63.73
2018-11-21T01:58:37.011Z,63.61
2018-11-21T02:01:07.672Z,64.04
2018-11-21T02:03:37.766Z,63.92
2018-11-21T02:06:08.051Z,64.21
2018-11-21T02:08:38.040Z,64.23
2018-11-21T02:11:07.682Z,64.29
2018-11-21T02:13:37.277Z,64.76
2018-11-21T02:16:07.586Z,64.87
2018-11-21T02:18:37.215Z,64.97
2018-11-21T02:21:06.908Z,65.16
2018-11-21T02:23:36.517Z,65.23
2018-11-21T02:26:06.555Z,65.07
2018-11-21T02:28:36.167Z,64.97
2018-11-21T02:31:06.368Z,64.60
2018-11-21T02:33:54.713Z,64.83
2018-11-21T02:36:24.308Z,64.07
2018-11-21T02:38:53.943Z,64.30
2018-11-21T02:41:23.521Z,64.78
2018-11-21T02:43:53.149Z,65.03
2018-11-21T02:46:22.732Z,65.25
2018-11-21T02:48:52.527Z,64.96
2018-11-21T02:51:22.689Z,65.31
2018-11-21T02:53:52.352Z,64.95
2018-11-21T02:56:21.932Z,65.02
2018-11-21T02:58:51.547Z,65.08
2018-11-21T03:01:21.129Z,65.18
2018-11-21T03:03:50.738Z,64.88
2018-11-21T03:06:20.336Z,64.93
2018-11-21T03:08:49.969Z,65.63
2018-11-21T03:11:19.643Z,65.31
2018-11-21T03:14:09.103Z,64.94
2018-11-21T03:16:38.626Z,64.94
2018-11-21T03:19:27.251Z,64.90
2018-11-21T03:21:56.859Z,64.31
2018-11-21T03:24:26.513Z,63.97
2018-11-21T03:26:57.136Z,63.80
2018-11-21T03:29:27.905Z,64.53
2018-11-21T03:31:57.477Z,63.87
2018-11-21T03:34:27.163Z,64.46
2018-11-21T03:36:57.056Z,64.49
2018-11-21T03:39:27.768Z,64.55
2018-11-21T03:41:57.487Z,65.29
2018-11-21T03:44:27.182Z,65.85
2018-11-21T03:47:15.750Z,65.41
2018-11-21T03:49:45.526Z,65.43
2018-11-21T03:52:15.519Z,65.67
2018-11-21T03:54:45.098Z,65.35
2018-11-21T03:57:14.723Z,65.55
2018-11-21T03:59:44.315Z,66.20
2018-11-21T04:02:14.307Z,66.45
2018-11-21T04:04:43.904Z,66.81
2018-11-21T04:07:13.622Z,67.61
2018-11-21T04:09:43.201Z,68.39
2018-11-21T04:12:13.475Z,69.11
2018-11-21T04:14:43.107Z,68.54
2018-11-21T04:17:12.689Z,67.85
2018-11-21T04:19:43.279Z,67.50
2018-11-21T04:22:31.766Z,67.16
2018-11-21T04:27:55.621Z,66.35
2018-11-21T04:30:25.228Z,66.06
2018-11-21T04:32:54.810Z,66.50
2018-11-21T04:35:24.450Z,66.79
2018-11-21T04:37:54.015Z,67.45
2018-11-21T04:40:23.641Z,66.70
2018-11-21T04:42:53.289Z,66.21
2018-11-21T04:45:22.876Z,66.22
2018-11-21T04:47:52.502Z,65.57
2018-11-21T04:52:58.126Z,65.71
2018-11-21T04:58:02.699Z,66.39
2018-11-21T05:00:32.333Z,66.03
2018-11-21T05:03:01.919Z,65.72
2018-11-21T05:05:31.504Z,65.75
2018-11-21T05:10:36.157Z,65.98
2018-11-21T05:13:05.767Z,65.99
2018-11-21T05:15:35.351Z,65.92
2018-11-21T05:18:04.991Z,65.86
2018-11-21T05:20:35.606Z,65.77
2018-11-21T05:23:05.609Z,66.08
2018-11-21T05:25:35.191Z,65.96
2018-11-21T05:28:04.912Z,65.97
2018-11-21T05:30:34.879Z,65.76
2018-11-21T05:33:04.520Z,65.73
2018-11-21T05:35:34.235Z,66.01
2018-11-21T05:38:03.902Z,66.00
2018-11-21T05:40:33.847Z,65.50
2018-11-21T05:43:03.522Z,65.61
2018-11-21T05:45:33.252Z,65.60
2018-11-21T05:48:02.963Z,66.03
2018-11-21T05:50:52.206Z,65.92
2018-11-21T05:53:21.845Z,67.08
2018-11-21T05:55:51.464Z,67.09
2018-11-21T05:58:21.053Z,66.78
2018-11-21T06:00:50.740Z,66.25
2018-11-21T06:03:20.375Z,66.15
2018-11-21T06:05:49.967Z,66.07
2018-11-21T06:08:19.582Z,65.87
2018-11-21T06:10:50.116Z,65.25
2018-11-21T06:13:19.849Z,65.63
2018-11-21T06:15:49.452Z,65.63
2018-11-21T06:18:19.085Z,65.65
2018-11-21T06:20:48.670Z,65.54
2018-11-21T06:23:37.213Z,65.68
2018-11-21T06:26:07.171Z,65.38
2018-11-21T06:28:55.436Z,66.34
2018-11-21T06:31:25.140Z,66.23
2018-11-21T06:33:54.822Z,67.87
2018-11-21T06:36:24.507Z,68.48
2018-11-21T06:38:54.020Z,68.57
2018-11-21T06:41:23.640Z,69.08
2018-11-21T06:43:53.260Z,68.84
2018-11-21T06:46:22.913Z,68.32
2018-11-21T06:48:52.544Z,67.49
2018-11-21T06:51:41.099Z,66.79
2018-11-21T06:54:12.990Z,66.43
2018-11-21T06:56:42.704Z,66.25
2018-11-21T06:59:12.274Z,66.11
2018-11-21T07:02:00.532Z,66.13
2018-11-21T07:04:30.125Z,66.17
2018-11-21T07:06:59.737Z,65.42
2018-11-21T07:09:29.709Z,65.33
2018-11-21T07:11:59.497Z,65.70
2018-11-21T07:14:30.181Z,65.17
2018-11-21T07:17:18.836Z,65.16
2018-11-21T07:19:48.420Z,65.22
2018-11-21T07:22:18.044Z,64.81
2018-11-21T07:24:47.617Z,65.07
2018-11-21T07:27:17.327Z,64.84
2018-11-21T07:29:46.907Z,65.83
2018-11-21T07:32:16.522Z,64.30
2018-11-21T07:34:46.127Z,68.00
2018-11-21T07:37:34.371Z,62.91
2018-11-21T07:40:04.502Z,62.96
2018-11-21T07:42:34.543Z,62.97
2018-11-21T07:45:04.147Z,62.42
2018-11-21T07:50:29.831Z,62.85
2018-11-21T07:53:00.714Z,63.11
2018-11-21T07:55:30.628Z,63.31
2018-11-21T07:58:02.716Z,63.18
2018-11-21T08:01:28.849Z,63.45
2018-11-21T08:04:17.180Z,63.30
2018-11-21T08:07:05.407Z,63.61
2018-11-21T08:12:48.200Z,63.56
2018-11-21T08:15:36.461Z,63.87
2018-11-21T08:18:24.756Z,63.69
2018-11-21T08:21:13.030Z,63.68
2018-11-21T08:24:01.248Z,63.58
2018-11-21T08:26:49.584Z,63.84
2018-11-21T08:29:19.513Z,64.16
2018-11-21T08:32:09.431Z,64.01
2018-11-21T08:34:39.006Z,65.18
2018-11-21T08:37:28.946Z,65.73
2018-11-21T08:39:58.533Z,66.89
2018-11-21T08:42:46.789Z,67.66
2018-11-21T08:45:16.357Z,67.91
2018-11-21T08:47:45.969Z,68.10
2018-11-21T08:50:15.540Z,68.57
2018-11-21T08:52:45.579Z,67.34
2018-11-21T08:55:15.149Z,67.26
2018-11-21T08:57:44.772Z,67.04
2018-11-21T09:00:15.353Z,67.41
2018-11-21T09:05:55.882Z,65.82
2018-11-21T09:08:24.761Z,65.12
2018-11-21T09:10:53.127Z,64.73
2018-11-21T09:13:21.474Z,64.70
2018-11-21T09:15:50.276Z,64.58
2018-11-21T09:18:18.632Z,65.17
2018-11-21T09:20:47.479Z,65.42
2018-11-21T09:23:16.311Z,66.37
2018-11-21T09:25:45.133Z,66.99
2018-11-21T09:28:13.496Z,67.69
2018-11-21T09:30:41.894Z,67.99
2018-11-21T09:33:10.601Z,67.25
2018-11-21T09:38:14.024Z,66.10
2018-11-21T09:43:16.503Z,64.93
2018-11-21T09:45:44.933Z,65.58
2018-11-21T09:48:13.363Z,65.86
2018-11-21T09:50:41.725Z,66.75
2018-11-21T09:53:10.181Z,67.21
2018-11-21T09:55:40.538Z,67.70
2018-11-21T09:58:06.941Z,67.54
2018-11-21T10:01:13.998Z,68.52
2018-11-21T10:03:42.385Z,68.93
2018-11-21T10:06:16.447Z,69.00
2018-11-21T10:08:46.546Z,67.83
2018-11-21T10:11:15.379Z,67.18
2018-11-21T10:13:43.731Z,66.90
2018-11-21T10:16:12.497Z,66.04
2018-11-21T10:18:42.659Z,65.80
2018-11-21T10:21:12.630Z,65.67
2018-11-21T10:23:40.991Z,65.52
2018-11-21T10:26:09.568Z,65.33
2018-11-21T10:28:38.278Z,65.08
2018-11-21T10:31:06.627Z,64.42
2018-11-21T10:33:35.375Z,64.95
2018-11-21T10:36:04.401Z,64.71
2018-11-21T10:38:33.159Z,64.66
2018-11-21T10:41:01.508Z,64.58
2018-11-21T10:43:30.349Z,65.29
2018-11-21T10:45:58.698Z,65.03
2018-11-21T10:48:27.050Z,65.15
2018-11-21T10:50:55.487Z,64.94
2018-11-21T10:53:24.142Z,64.62
2018-11-21T10:55:52.503Z,64.51
2018-11-21T10:58:20.894Z,64.86
2018-11-21T11:01:08.319Z,64.81
2018-11-21T11:03:39.262Z,64.93
2018-11-21T11:06:26.737Z,65.39
2018-11-21T11:09:14.574Z,65.56
2018-11-21T11:12:02.063Z,65.70
2018-11-21T11:15:08.902Z,65.13
2018-11-21T11:17:59.525Z,64.23
2018-11-21T11:20:43.799Z,64.75
2018-11-21T11:23:31.252Z,65.48
2018-11-21T11:26:18.868Z,66.52
2018-11-21T11:29:06.319Z,66.99
2018-11-21T11:31:53.730Z,66.52
2018-11-21T11:34:41.184Z,66.90
2018-11-21T11:37:28.597Z,66.19
2018-11-21T11:40:16.054Z,66.66
2018-11-21T11:43:03.807Z,66.12
2018-11-21T11:45:51.255Z,65.61
2018-11-21T11:48:38.674Z,65.47
2018-11-21T11:51:26.123Z,65.19
2018-11-21T11:54:13.540Z,64.62
2018-11-21T11:59:54.310Z,64.13
2018-11-21T12:02:42.333Z,64.12
2018-11-21T12:05:29.741Z,63.97
2018-11-21T12:08:15.638Z,63.87
2018-11-21T12:11:03.134Z,63.84
2018-11-21T12:13:50.579Z,63.95
2018-11-21T12:16:37.997Z,64.51
2018-11-21T12:19:25.472Z,63.96
2018-11-21T12:22:12.885Z,63.95
2018-11-21T12:25:00.575Z,64.34
2018-11-21T12:27:37.951Z,64.17
2018-11-21T12:30:27.563Z,64.13
2018-11-21T12:33:15.043Z,64.21
2018-11-21T12:36:02.459Z,64.16
2018-11-21T12:38:49.926Z,64.22
2018-11-21T12:41:37.338Z,64.32
2018-11-21T12:44:24.826Z,64.12
2018-11-21T12:47:12.244Z,64.47
2018-11-21T12:49:59.696Z,64.21
2018-11-21T12:52:47.106Z,64.03
2018-11-21T12:55:34.857Z,64.09
2018-11-21T12:58:22.270Z,64.00
2018-11-21T13:01:09.723Z,63.85
2018-11-21T13:03:57.133Z,63.76
2018-11-21T13:06:44.651Z,64.01
2018-11-21T13:09:32.162Z,64.29
2018-11-21T13:12:19.802Z,64.49
2018-11-21T13:15:07.331Z,64.35
2018-11-21T13:17:48.872Z,64.45
2018-11-21T13:20:36.289Z,64.26
2018-11-21T13:23:23.802Z,64.29
2018-11-21T13:26:11.339Z,64.54
2018-11-21T13:28:58.822Z,64.68
2018-11-21T13:31:42.412Z,65.22
2018-11-21T13:34:29.882Z,64.74
2018-11-21T13:37:17.293Z,64.96
2018-11-21T13:42:58.964Z,65.08
2018-11-21T13:45:46.795Z,64.99
2018-11-21T13:48:34.215Z,65.12
2018-11-21T13:51:22.043Z,64.79
2018-11-21T13:54:09.466Z,65.28
2018-11-21T13:56:38.043Z,65.58
2018-11-21T13:59:06.404Z,66.02
2018-11-21T14:01:34.820Z,66.18
2018-11-21T14:06:38.081Z,65.03
2018-11-21T14:09:09.700Z,65.06
2018-11-21T14:11:38.111Z,64.87
2018-11-21T14:14:06.727Z,65.18
2018-11-21T14:16:35.201Z,65.15
2018-11-21T14:19:03.564Z,65.22
2018-11-21T14:21:31.981Z,64.94
2018-11-21T14:24:00.842Z,65.04
2018-11-21T14:26:29.616Z,65.17
2018-11-21T14:28:58.594Z,65.25
2018-11-21T14:31:26.964Z,65.26
2018-11-21T14:33:55.338Z,65.05
2018-11-21T14:36:23.747Z,64.98
2018-11-21T14:38:52.644Z,65.18
2018-11-21T14:43:55.932Z,65.16
2018-11-21T14:46:24.356Z,65.05
2018-11-21T14:48:52.732Z,64.71
2018-11-21T14:51:21.734Z,64.91
2018-11-21T14:53:50.099Z,65.13
2018-11-21T14:56:18.527Z,65.08
2018-11-21T14:58:46.895Z,65.00
2018-11-21T15:01:15.604Z,65.80
2018-11-21T15:03:44.104Z,65.71
2018-11-21T15:06:12.465Z,66.75
2018-11-21T15:08:40.989Z,67.90
2018-11-21T15:11:09.905Z,68.46
2018-11-21T15:16:12.339Z,69.60
2018-11-21T15:21:16.592Z,68.27
2018-11-21T15:23:43.722Z,68.24
2018-11-21T15:26:32.085Z,68.33
2018-11-21T15:29:00.884Z,69.01
2018-11-21T15:31:29.250Z,69.16
2018-11-21T15:33:57.612Z,69.19
2018-11-21T15:36:26.054Z,69.08
2018-11-21T15:38:54.418Z,70.58
2018-11-21T15:41:22.888Z,70.00
2018-11-21T15:46:25.421Z,68.97
2018-11-21T15:48:53.781Z,68.00
2018-11-21T15:51:22.199Z,67.60
2018-11-21T15:53:50.564Z,67.00
2018-11-21T15:56:19.091Z,66.54
2018-11-21T15:58:47.868Z,66.30
2018-11-21T16:01:16.230Z,67.08
2018-11-21T16:03:44.652Z,66.98
2018-11-21T16:06:13.125Z,67.74
2018-11-21T16:08:42.024Z,68.57
2018-11-21T16:11:29.847Z,68.50
2018-11-21T16:13:58.298Z,67.25
2018-11-21T16:16:26.655Z,66.95
2018-11-21T16:18:55.015Z,66.87
2018-11-21T16:21:23.506Z,66.86
2018-11-21T16:23:51.945Z,66.77
2018-11-21T16:26:20.539Z,67.34
2018-11-21T16:28:49.275Z,68.42
2018-11-21T16:31:17.774Z,68.30
2018-11-21T16:33:46.139Z,67.31
2018-11-21T16:36:14.499Z,66.92
2018-11-21T16:38:42.901Z,66.76
2018-11-21T16:41:11.757Z,66.81
2018-11-21T16:43:40.177Z,66.82
2018-11-21T16:46:08.528Z,66.64
2018-11-21T16:48:37.021Z,67.54
2018-11-21T16:51:05.921Z,67.99
2018-11-21T16:53:35.175Z,66.95
2018-11-21T16:56:02.744Z,66.59
2018-11-21T16:58:31.222Z,66.52
2018-11-21T17:00:59.677Z,67.39
2018-11-21T17:03:28.167Z,66.10
2018-11-21T17:05:56.630Z,66.26
2018-11-21T17:08:25.007Z,66.09
2018-11-21T17:10:53.799Z,66.27
2018-11-21T17:13:22.909Z,66.24
2018-11-21T17:15:51.506Z,66.48
2018-11-21T17:18:19.879Z,67.45
2018-11-21T17:20:48.630Z,67.71
2018-11-21T17:23:17.008Z,67.54
2018-11-21T17:25:45.497Z,68.12
2018-11-21T17:28:13.857Z,68.42
2018-11-21T17:30:42.313Z,67.69
2018-11-21T17:33:10.689Z,68.72
2018-11-21T17:35:39.067Z,68.24
2018-11-21T17:38:07.630Z,69.72
2018-11-21T17:40:38.347Z,70.29
2018-11-21T17:43:06.961Z,68.43
2018-11-21T17:45:35.324Z,68.42
2018-11-21T17:48:03.958Z,68.19
2018-11-21T17:50:32.411Z,68.66
2018-11-21T17:53:02.253Z,69.13
2018-11-21T17:55:31.612Z,69.15
2018-11-21T17:58:00.187Z,68.85
2018-11-21T18:00:29.984Z,68.71
2018-11-21T18:02:58.360Z,67.51
2018-11-21T18:05:45.873Z,68.06
2018-11-21T18:08:14.368Z,68.94
2018-11-21T18:10:42.970Z,68.32
2018-11-21T18:13:11.374Z,68.43
2018-11-21T18:15:39.979Z,69.17
2018-11-21T18:18:08.971Z,68.73
2018-11-21T18:20:37.333Z,68.83
2018-11-21T18:23:05.759Z,68.77
2018-11-21T18:25:53.179Z,68.57
2018-11-21T18:28:21.872Z,68.83
2018-11-21T18:30:50.343Z,69.74
2018-11-21T18:33:18.725Z,69.93
2018-11-21T18:35:47.187Z,70.02
2018-11-21T18:38:15.593Z,70.49
2018-11-21T18:40:44.813Z,70.19
2018-11-21T18:43:13.217Z,70.24
2018-11-21T18:45:43.885Z,70.13
2018-11-21T18:48:12.575Z,70.02
2018-11-21T18:50:41.258Z,69.93
2018-11-21T18:53:10.382Z,70.29
2018-11-21T18:55:59.471Z,70.14
2018-11-21T18:58:34.555Z,69.39
2018-11-21T19:01:02.946Z,69.51
2018-11-21T19:06:05.723Z,69.34
2018-11-21T19:08:35.126Z,68.95
2018-11-21T19:11:03.483Z,68.49
2018-11-21T19:16:07.386Z,69.17
2018-11-21T19:18:36.047Z,69.58
2018-11-21T19:21:04.754Z,69.50
2018-11-21T19:23:33.507Z,69.69
2018-11-21T19:26:02.085Z,70.12
2018-11-21T19:28:30.499Z,70.03
2018-11-21T19:33:32.104Z,69.79
2018-11-21T19:36:00.864Z,69.89
2018-11-21T19:38:29.227Z,70.25
2018-11-21T19:40:57.740Z,70.50
2018-11-21T19:46:00.259Z,69.63
2018-11-21T19:48:28.877Z,69.74
2018-11-21T19:50:57.314Z,69.78
2018-11-21T19:53:25.671Z,69.72
2018-11-21T19:55:55.431Z,69.94
2018-11-21T19:58:24.666Z,70.07
2018-11-21T20:00:53.050Z,69.84
2018-11-21T20:05:56.454Z,69.47
2018-11-21T20:08:24.872Z,69.57
2018-11-21T20:10:53.321Z,69.94
2018-11-21T20:13:21.695Z,69.64
2018-11-21T20:18:23.832Z,69.54
2018-11-21T20:20:52.499Z,69.37
2018-11-21T20:23:20.936Z,69.99
2018-11-21T20:25:49.359Z,70.34
2018-11-21T20:28:17.725Z,69.59
2018-11-21T20:30:46.663Z,69.85
2018-11-21T20:33:15.037Z,69.46
2018-11-21T20:35:43.426Z,69.51
2018-11-21T20:38:11.833Z,69.63
2018-11-21T20:40:40.708Z,68.92
2018-11-21T20:43:09.135Z,69.00
2018-11-21T20:45:37.497Z,68.75
2018-11-21T20:48:06.029Z,69.13
2018-11-21T20:50:34.884Z,68.88
2018-11-21T20:53:03.252Z,69.23
2018-11-21T20:55:32.507Z,69.32
2018-11-21T20:58:00.906Z,69.48
2018-11-21T21:05:32.992Z,70.20
2018-11-21T21:10:35.276Z,70.28
2018-11-21T21:13:03.604Z,70.18
2018-11-21T21:15:31.969Z,69.88
2018-11-21T21:18:01.662Z,70.20
2018-11-21T21:20:29.053Z,70.46
2018-11-21T21:22:58.638Z,69.20
2018-11-21T21:25:28.484Z,69.50
2018-11-21T21:27:56.919Z,70.11
2018-11-21T21:30:27.108Z,69.44
2018-11-21T21:32:55.557Z,69.53
2018-11-21T21:35:25.034Z,69.87
2018-11-21T21:37:53.969Z,69.36
2018-11-21T21:40:22.880Z,68.96
2018-11-21T21:42:51.205Z,68.73
2018-11-21T21:47:55.536Z,68.61
2018-11-21T21:52:59.972Z,68.71
2018-11-21T21:55:29.508Z,68.67
2018-11-21T21:57:58.984Z,68.21
2018-11-21T22:00:28.373Z,68.42
2018-11-21T22:02:58.141Z,68.60
2018-11-21T22:05:26.645Z,68.78
2018-11-21T22:10:29.612Z,68.85
2018-11-21T22:12:58.179Z,68.88
2018-11-21T22:15:27.966Z,68.79
2018-11-21T22:17:57.882Z,68.49
2018-11-21T22:20:26.358Z,68.59
2018-11-21T22:22:55.051Z,68.46
2018-11-21T22:25:23.971Z,68.31
2018-11-21T22:27:52.330Z,67.76
2018-11-21T22:30:21.221Z,67.75
2018-11-21T22:32:50.713Z,67.86
2018-11-21T22:35:24.936Z,68.02
2018-11-21T22:37:51.365Z,68.15
2018-11-21T22:42:51.470Z,67.96
2018-11-21T22:45:21.213Z,68.11
2018-11-21T22:47:49.560Z,67.55
2018-11-21T22:50:21.670Z,66.88
2018-11-21T22:55:24.794Z,65.86
2018-11-21T22:57:53.985Z,66.12
2018-11-21T23:00:42.092Z,66.68
2018-11-21T23:03:11.242Z,66.64
2018-11-21T23:05:39.921Z,66.89
2018-11-21T23:08:27.721Z,67.49
2018-11-21T23:10:56.127Z,67.51
2018-11-21T23:13:24.541Z,67.53
2018-11-21T23:15:53.030Z,67.36
2018-11-21T23:18:21.659Z,67.24
2018-11-21T23:20:50.011Z,67.42
2018-11-21T23:23:18.422Z,67.65
2018-11-21T23:25:47.223Z,67.60
2018-11-21T23:28:15.646Z,67.28
2018-11-21T23:30:44.134Z,67.37
2018-11-21T23:33:12.931Z,66.71
2018-11-21T23:38:15.699Z,66.46
2018-11-21T23:40:44.123Z,66.40
2018-11-21T23:43:12.490Z,66.51
2018-11-21T23:45:41.762Z,66.38
2018-11-21T23:48:10.434Z,65.94
2018-11-21T23:50:39.169Z,65.51
2018-11-21T23:53:07.574Z,65.52
2018-11-21T23:55:35.939Z,65.42
2018-11-21T23:58:04.333Z,65.53
